sensor_id;sensor_type;location;lat;lon;timestamp;P1;durP1;ratioP1;P2;durP2;ratioP2
62880;SDS011;48969;49.934;8.596;2023-08-21T00:01:00;9.60;;;7.82;;
62880;SDS011;48969;49.934;8.596;2023-08-21T00:03:26;8.95;;;7.78;;
62880;SDS011;48969;49.934;8.596;2023-08-21T00:05:51;10.88;;;7.60;;
62880;SDS011;48969;49.934;8.596;2023-08-21T00:08:17;8.93;;;8.02;;
62880;SDS011;48969;49.934;8.596;2023-08-21T00:10:42;8.13;;;6.78;;
62880;SDS011;48969;49.934;8.596;2023-08-21T00:13:07;8.23;;;7.43;;
62880;SDS011;48969;49.934;8.596;2023-08-21T00:15:33;8.15;;;6.68;;
62880;SDS011;48969;49.934;8.596;2023-08-21T00:17:58;9.50;;;7.22;;
62880;SDS011;48969;49.934;8.596;2023-08-21T00:20:25;7.70;;;6.80;;
62880;SDS011;48969;49.934;8.596;2023-08-21T00:22:51;9.07;;;7.55;;
62880;SDS011;48969;49.934;8.596;2023-08-21T00:25:16;8.65;;;6.97;;
62880;SDS011;48969;49.934;8.596;2023-08-21T00:27:41;7.57;;;6.55;;
62880;SDS011;48969;49.934;8.596;2023-08-21T00:30:07;7.82;;;6.88;;
62880;SDS011;48969;49.934;8.596;2023-08-21T00:32:32;8.77;;;7.13;;
62880;SDS011;48969;49.934;8.596;2023-08-21T00:34:58;7.57;;;6.80;;
62880;SDS011;48969;49.934;8.596;2023-08-21T00:37:23;8.70;;;6.53;;
62880;SDS011;48969;49.934;8.596;2023-08-21T00:39:48;7.25;;;6.35;;
62880;SDS011;48969;49.934;8.596;2023-08-21T00:42:13;8.18;;;6.78;;
62880;SDS011;48969;49.934;8.596;2023-08-21T00:44:39;8.52;;;7.00;;
62880;SDS011;48969;49.934;8.596;2023-08-21T00:47:04;8.75;;;6.82;;
62880;SDS011;48969;49.934;8.596;2023-08-21T00:49:30;7.80;;;6.95;;
62880;SDS011;48969;49.934;8.596;2023-08-21T00:51:55;8.73;;;7.50;;
62880;SDS011;48969;49.934;8.596;2023-08-21T00:54:21;9.15;;;7.30;;
62880;SDS011;48969;49.934;8.596;2023-08-21T00:56:46;9.13;;;7.50;;
62880;SDS011;48969;49.934;8.596;2023-08-21T00:59:12;9.38;;;7.38;;
62880;SDS011;48969;49.934;8.596;2023-08-21T01:01:38;8.20;;;6.80;;
62880;SDS011;48969;49.934;8.596;2023-08-21T01:04:04;7.85;;;6.93;;
62880;SDS011;48969;49.934;8.596;2023-08-21T01:06:29;8.48;;;7.25;;
62880;SDS011;48969;49.934;8.596;2023-08-21T01:08:57;9.82;;;7.90;;
62880;SDS011;48969;49.934;8.596;2023-08-21T01:14:22;10.30;;;7.72;;
62880;SDS011;48969;49.934;8.596;2023-08-21T01:16:52;9.73;;;7.13;;
62880;SDS011;48969;49.934;8.596;2023-08-21T01:19:30;9.02;;;7.13;;
62880;SDS011;48969;49.934;8.596;2023-08-21T01:22:00;10.65;;;7.18;;
62880;SDS011;48969;49.934;8.596;2023-08-21T01:24:25;8.70;;;7.13;;
62880;SDS011;48969;49.934;8.596;2023-08-21T01:26:51;9.13;;;7.30;;
62880;SDS011;48969;49.934;8.596;2023-08-21T01:29:16;7.35;;;6.65;;
62880;SDS011;48969;49.934;8.596;2023-08-21T01:31:42;11.52;;;7.22;;
62880;SDS011;48969;49.934;8.596;2023-08-21T01:34:15;7.82;;;6.90;;
62880;SDS011;48969;49.934;8.596;2023-08-21T01:36:42;7.28;;;6.20;;
62880;SDS011;48969;49.934;8.596;2023-08-21T01:39:08;8.02;;;6.88;;
62880;SDS011;48969;49.934;8.596;2023-08-21T01:41:33;7.90;;;7.10;;
62880;SDS011;48969;49.934;8.596;2023-08-21T01:43:59;8.23;;;6.47;;
62880;SDS011;48969;49.934;8.596;2023-08-21T01:46:24;7.85;;;6.43;;
62880;SDS011;48969;49.934;8.596;2023-08-21T01:48:49;7.13;;;6.43;;
62880;SDS011;48969;49.934;8.596;2023-08-21T01:51:15;8.13;;;7.13;;
62880;SDS011;48969;49.934;8.596;2023-08-21T01:53:40;9.73;;;6.82;;
62880;SDS011;48969;49.934;8.596;2023-08-21T01:56:05;7.18;;;6.18;;
62880;SDS011;48969;49.934;8.596;2023-08-21T01:58:31;8.48;;;6.85;;
62880;SDS011;48969;49.934;8.596;2023-08-21T02:00:56;8.90;;;7.18;;
62880;SDS011;48969;49.934;8.596;2023-08-21T02:03:21;8.00;;;6.78;;
62880;SDS011;48969;49.934;8.596;2023-08-21T02:05:50;7.20;;;6.30;;
62880;SDS011;48969;49.934;8.596;2023-08-21T02:08:16;9.45;;;7.00;;
62880;SDS011;48969;49.934;8.596;2023-08-21T02:10:52;7.28;;;6.35;;
62880;SDS011;48969;49.934;8.596;2023-08-21T02:13:17;8.68;;;6.90;;
62880;SDS011;48969;49.934;8.596;2023-08-21T02:15:44;8.40;;;6.53;;
62880;SDS011;48969;49.934;8.596;2023-08-21T02:18:09;10.45;;;7.85;;
62880;SDS011;48969;49.934;8.596;2023-08-21T02:20:34;8.00;;;6.35;;
62880;SDS011;48969;49.934;8.596;2023-08-21T02:23:00;7.78;;;6.57;;
62880;SDS011;48969;49.934;8.596;2023-08-21T02:25:25;7.68;;;6.80;;
62880;SDS011;48969;49.934;8.596;2023-08-21T02:27:50;9.25;;;6.95;;
62880;SDS011;48969;49.934;8.596;2023-08-21T02:30:16;9.18;;;7.05;;
62880;SDS011;48969;49.934;8.596;2023-08-21T02:32:41;7.43;;;6.18;;
62880;SDS011;48969;49.934;8.596;2023-08-21T02:35:07;8.63;;;6.95;;
62880;SDS011;48969;49.934;8.596;2023-08-21T02:37:33;7.60;;;6.72;;
62880;SDS011;48969;49.934;8.596;2023-08-21T02:39:59;8.63;;;7.38;;
62880;SDS011;48969;49.934;8.596;2023-08-21T02:42:24;9.18;;;7.57;;
62880;SDS011;48969;49.934;8.596;2023-08-21T02:44:50;9.65;;;7.00;;
62880;SDS011;48969;49.934;8.596;2023-08-21T02:47:15;7.90;;;6.75;;
62880;SDS011;48969;49.934;8.596;2023-08-21T02:49:40;7.55;;;6.32;;
62880;SDS011;48969;49.934;8.596;2023-08-21T02:52:06;7.20;;;6.20;;
62880;SDS011;48969;49.934;8.596;2023-08-21T02:54:31;8.88;;;6.95;;
62880;SDS011;48969;49.934;8.596;2023-08-21T02:56:56;10.38;;;8.85;;
62880;SDS011;48969;49.934;8.596;2023-08-21T02:59:22;10.68;;;7.80;;
62880;SDS011;48969;49.934;8.596;2023-08-21T03:01:47;10.02;;;8.63;;
62880;SDS011;48969;49.934;8.596;2023-08-21T03:04:13;10.50;;;8.25;;
62880;SDS011;48969;49.934;8.596;2023-08-21T03:06:38;9.63;;;8.50;;
62880;SDS011;48969;49.934;8.596;2023-08-21T03:09:03;10.27;;;8.00;;
62880;SDS011;48969;49.934;8.596;2023-08-21T03:11:28;8.77;;;7.75;;
62880;SDS011;48969;49.934;8.596;2023-08-21T03:13:54;11.98;;;8.30;;
62880;SDS011;48969;49.934;8.596;2023-08-21T03:16:19;9.60;;;8.18;;
62880;SDS011;48969;49.934;8.596;2023-08-21T03:18:55;9.35;;;8.30;;
62880;SDS011;48969;49.934;8.596;2023-08-21T03:21:25;10.07;;;9.07;;
62880;SDS011;48969;49.934;8.596;2023-08-21T03:23:51;10.40;;;9.23;;
62880;SDS011;48969;49.934;8.596;2023-08-21T03:26:20;11.93;;;9.65;;
62880;SDS011;48969;49.934;8.596;2023-08-21T03:28:45;10.57;;;8.75;;
62880;SDS011;48969;49.934;8.596;2023-08-21T03:31:11;10.15;;;9.10;;
62880;SDS011;48969;49.934;8.596;2023-08-21T03:33:36;11.13;;;8.93;;
62880;SDS011;48969;49.934;8.596;2023-08-21T03:36:01;11.40;;;9.60;;
62880;SDS011;48969;49.934;8.596;2023-08-21T03:38:27;10.55;;;9.45;;
62880;SDS011;48969;49.934;8.596;2023-08-21T03:40:52;10.48;;;9.05;;
62880;SDS011;48969;49.934;8.596;2023-08-21T03:43:17;12.40;;;9.52;;
62880;SDS011;48969;49.934;8.596;2023-08-21T03:45:43;10.93;;;9.85;;
62880;SDS011;48969;49.934;8.596;2023-08-21T03:48:08;11.25;;;9.90;;
62880;SDS011;48969;49.934;8.596;2023-08-21T03:50:33;11.07;;;9.65;;
62880;SDS011;48969;49.934;8.596;2023-08-21T03:52:58;11.10;;;9.05;;
62880;SDS011;48969;49.934;8.596;2023-08-21T03:55:24;10.32;;;9.27;;
62880;SDS011;48969;49.934;8.596;2023-08-21T03:57:49;11.27;;;9.50;;
62880;SDS011;48969;49.934;8.596;2023-08-21T04:00:14;12.10;;;9.18;;
62880;SDS011;48969;49.934;8.596;2023-08-21T04:02:40;10.90;;;9.43;;
62880;SDS011;48969;49.934;8.596;2023-08-21T04:05:05;11.15;;;9.43;;
62880;SDS011;48969;49.934;8.596;2023-08-21T04:07:31;10.40;;;9.23;;
62880;SDS011;48969;49.934;8.596;2023-08-21T04:09:56;10.93;;;9.82;;
62880;SDS011;48969;49.934;8.596;2023-08-21T04:12:21;10.18;;;9.10;;
62880;SDS011;48969;49.934;8.596;2023-08-21T04:14:47;10.05;;;8.95;;
62880;SDS011;48969;49.934;8.596;2023-08-21T04:17:12;11.02;;;9.80;;
62880;SDS011;48969;49.934;8.596;2023-08-21T04:19:37;12.75;;;10.65;;
62880;SDS011;48969;49.934;8.596;2023-08-21T04:22:05;9.77;;;8.77;;
62880;SDS011;48969;49.934;8.596;2023-08-21T04:24:31;11.90;;;8.90;;
62880;SDS011;48969;49.934;8.596;2023-08-21T04:26:56;11.77;;;9.18;;
62880;SDS011;48969;49.934;8.596;2023-08-21T04:29:21;12.63;;;9.35;;
62880;SDS011;48969;49.934;8.596;2023-08-21T04:31:47;11.45;;;10.10;;
62880;SDS011;48969;49.934;8.596;2023-08-21T04:34:13;11.88;;;9.82;;
62880;SDS011;48969;49.934;8.596;2023-08-21T04:36:38;10.40;;;9.30;;
62880;SDS011;48969;49.934;8.596;2023-08-21T04:39:03;10.75;;;8.98;;
62880;SDS011;48969;49.934;8.596;2023-08-21T04:41:29;10.50;;;9.38;;
62880;SDS011;48969;49.934;8.596;2023-08-21T04:43:54;10.40;;;9.20;;
62880;SDS011;48969;49.934;8.596;2023-08-21T04:46:19;10.77;;;9.68;;
62880;SDS011;48969;49.934;8.596;2023-08-21T04:48:45;12.55;;;9.82;;
62880;SDS011;48969;49.934;8.596;2023-08-21T04:51:10;10.95;;;9.85;;
62880;SDS011;48969;49.934;8.596;2023-08-21T04:53:35;10.70;;;9.63;;
62880;SDS011;48969;49.934;8.596;2023-08-21T04:56:00;14.27;;;10.18;;
62880;SDS011;48969;49.934;8.596;2023-08-21T04:58:26;11.60;;;10.40;;
62880;SDS011;48969;49.934;8.596;2023-08-21T05:00:51;11.80;;;10.60;;
62880;SDS011;48969;49.934;8.596;2023-08-21T05:03:16;12.15;;;9.95;;
62880;SDS011;48969;49.934;8.596;2023-08-21T05:05:42;11.27;;;10.18;;
62880;SDS011;48969;49.934;8.596;2023-08-21T05:08:07;11.13;;;9.77;;
62880;SDS011;48969;49.934;8.596;2023-08-21T05:10:32;11.60;;;10.40;;
62880;SDS011;48969;49.934;8.596;2023-08-21T05:12:57;11.85;;;9.65;;
62880;SDS011;48969;49.934;8.596;2023-08-21T05:15:23;11.38;;;9.65;;
62880;SDS011;48969;49.934;8.596;2023-08-21T05:17:48;11.25;;;10.02;;
62880;SDS011;48969;49.934;8.596;2023-08-21T05:20:13;11.63;;;10.15;;
62880;SDS011;48969;49.934;8.596;2023-08-21T05:22:40;12.27;;;10.57;;
62880;SDS011;48969;49.934;8.596;2023-08-21T05:25:06;11.10;;;10.00;;
62880;SDS011;48969;49.934;8.596;2023-08-21T05:27:32;12.48;;;11.18;;
62880;SDS011;48969;49.934;8.596;2023-08-21T05:29:57;11.60;;;10.38;;
62880;SDS011;48969;49.934;8.596;2023-08-21T05:32:24;13.00;;;10.82;;
62880;SDS011;48969;49.934;8.596;2023-08-21T05:34:49;11.97;;;10.70;;
62880;SDS011;48969;49.934;8.596;2023-08-21T05:37:14;12.23;;;10.75;;
62880;SDS011;48969;49.934;8.596;2023-08-21T05:39:39;13.02;;;10.95;;
62880;SDS011;48969;49.934;8.596;2023-08-21T05:42:05;12.13;;;10.75;;
62880;SDS011;48969;49.934;8.596;2023-08-21T05:44:30;13.57;;;12.15;;
62880;SDS011;48969;49.934;8.596;2023-08-21T05:46:55;13.23;;;11.82;;
62880;SDS011;48969;49.934;8.596;2023-08-21T05:49:21;13.77;;;11.45;;
62880;SDS011;48969;49.934;8.596;2023-08-21T05:51:46;12.40;;;11.20;;
62880;SDS011;48969;49.934;8.596;2023-08-21T05:54:11;13.15;;;11.40;;
62880;SDS011;48969;49.934;8.596;2023-08-21T05:56:36;12.88;;;11.55;;
62880;SDS011;48969;49.934;8.596;2023-08-21T05:59:02;15.20;;;12.68;;
62880;SDS011;48969;49.934;8.596;2023-08-21T06:01:27;12.85;;;11.55;;
62880;SDS011;48969;49.934;8.596;2023-08-21T06:03:52;13.60;;;12.23;;
62880;SDS011;48969;49.934;8.596;2023-08-21T06:06:17;12.95;;;11.60;;
62880;SDS011;48969;49.934;8.596;2023-08-21T06:08:43;12.82;;;11.65;;
62880;SDS011;48969;49.934;8.596;2023-08-21T06:11:08;13.45;;;12.05;;
62880;SDS011;48969;49.934;8.596;2023-08-21T06:13:34;14.77;;;12.68;;
62880;SDS011;48969;49.934;8.596;2023-08-21T06:15:59;12.82;;;11.55;;
62880;SDS011;48969;49.934;8.596;2023-08-21T06:18:24;13.25;;;11.95;;
62880;SDS011;48969;49.934;8.596;2023-08-21T06:20:50;13.85;;;11.95;;
62880;SDS011;48969;49.934;8.596;2023-08-21T06:23:19;12.95;;;11.63;;
62880;SDS011;48969;49.934;8.596;2023-08-21T06:25:47;12.55;;;11.35;;
62880;SDS011;48969;49.934;8.596;2023-08-21T06:28:13;13.43;;;10.93;;
62880;SDS011;48969;49.934;8.596;2023-08-21T06:30:38;13.90;;;12.40;;
62880;SDS011;48969;49.934;8.596;2023-08-21T06:33:04;12.60;;;11.35;;
62880;SDS011;48969;49.934;8.596;2023-08-21T06:35:29;12.15;;;10.95;;
62880;SDS011;48969;49.934;8.596;2023-08-21T06:37:54;13.25;;;11.50;;
62880;SDS011;48969;49.934;8.596;2023-08-21T06:40:20;13.25;;;10.57;;
62880;SDS011;48969;49.934;8.596;2023-08-21T06:42:45;11.60;;;10.50;;
62880;SDS011;48969;49.934;8.596;2023-08-21T06:45:10;14.07;;;10.98;;
62880;SDS011;48969;49.934;8.596;2023-08-21T06:47:35;12.50;;;10.75;;
62880;SDS011;48969;49.934;8.596;2023-08-21T06:50:01;11.93;;;10.73;;
62880;SDS011;48969;49.934;8.596;2023-08-21T06:52:26;11.88;;;10.02;;
62880;SDS011;48969;49.934;8.596;2023-08-21T06:54:51;12.32;;;10.75;;
62880;SDS011;48969;49.934;8.596;2023-08-21T06:57:17;12.05;;;10.10;;
62880;SDS011;48969;49.934;8.596;2023-08-21T06:59:42;11.05;;;9.43;;
62880;SDS011;48969;49.934;8.596;2023-08-21T07:02:07;10.73;;;9.73;;
62880;SDS011;48969;49.934;8.596;2023-08-21T07:04:33;12.02;;;10.82;;
62880;SDS011;48969;49.934;8.596;2023-08-21T07:06:58;10.68;;;9.57;;
62880;SDS011;48969;49.934;8.596;2023-08-21T07:09:24;10.80;;;9.70;;
62880;SDS011;48969;49.934;8.596;2023-08-21T07:11:49;10.80;;;9.77;;
62880;SDS011;48969;49.934;8.596;2023-08-21T07:14:14;10.80;;;9.75;;
62880;SDS011;48969;49.934;8.596;2023-08-21T07:16:40;10.38;;;9.35;;
62880;SDS011;48969;49.934;8.596;2023-08-21T07:19:05;10.85;;;9.73;;
62880;SDS011;48969;49.934;8.596;2023-08-21T07:21:30;10.35;;;9.25;;
62880;SDS011;48969;49.934;8.596;2023-08-21T07:23:55;10.32;;;9.15;;
62880;SDS011;48969;49.934;8.596;2023-08-21T07:26:21;11.20;;;10.10;;
62880;SDS011;48969;49.934;8.596;2023-08-21T07:28:46;11.27;;;10.13;;
62880;SDS011;48969;49.934;8.596;2023-08-21T07:31:12;10.70;;;9.60;;
62880;SDS011;48969;49.934;8.596;2023-08-21T07:33:37;10.55;;;9.45;;
62880;SDS011;48969;49.934;8.596;2023-08-21T07:36:03;11.20;;;9.70;;
62880;SDS011;48969;49.934;8.596;2023-08-21T07:38:29;12.20;;;9.27;;
62880;SDS011;48969;49.934;8.596;2023-08-21T07:41:05;11.15;;;10.00;;
62880;SDS011;48969;49.934;8.596;2023-08-21T07:43:33;11.15;;;9.95;;
62880;SDS011;48969;49.934;8.596;2023-08-21T07:46:01;11.23;;;10.10;;
62880;SDS011;48969;49.934;8.596;2023-08-21T07:48:31;9.65;;;8.75;;
62880;SDS011;48969;49.934;8.596;2023-08-21T07:50:56;10.90;;;9.65;;
62880;SDS011;48969;49.934;8.596;2023-08-21T07:53:22;10.00;;;8.98;;
62880;SDS011;48969;49.934;8.596;2023-08-21T07:55:48;10.38;;;9.38;;
62880;SDS011;48969;49.934;8.596;2023-08-21T07:58:13;9.55;;;8.55;;
62880;SDS011;48969;49.934;8.596;2023-08-21T08:00:38;9.80;;;8.82;;
62880;SDS011;48969;49.934;8.596;2023-08-21T08:03:04;10.20;;;9.20;;
62880;SDS011;48969;49.934;8.596;2023-08-21T08:05:30;10.75;;;9.52;;
62880;SDS011;48969;49.934;8.596;2023-08-21T08:07:56;11.05;;;9.27;;
62880;SDS011;48969;49.934;8.596;2023-08-21T08:10:21;9.52;;;8.60;;
62880;SDS011;48969;49.934;8.596;2023-08-21T08:12:46;9.70;;;8.70;;
62880;SDS011;48969;49.934;8.596;2023-08-21T08:15:11;10.18;;;8.70;;
62880;SDS011;48969;49.934;8.596;2023-08-21T08:17:37;10.07;;;9.07;;
62880;SDS011;48969;49.934;8.596;2023-08-21T08:20:02;9.63;;;8.73;;
62880;SDS011;48969;49.934;8.596;2023-08-21T08:22:27;10.07;;;8.85;;
62880;SDS011;48969;49.934;8.596;2023-08-21T08:24:53;9.80;;;8.73;;
62880;SDS011;48969;49.934;8.596;2023-08-21T08:27:18;11.07;;;9.18;;
62880;SDS011;48969;49.934;8.596;2023-08-21T08:29:43;10.40;;;9.35;;
62880;SDS011;48969;49.934;8.596;2023-08-21T08:32:08;10.20;;;9.20;;
62880;SDS011;48969;49.934;8.596;2023-08-21T08:34:34;9.75;;;8.73;;
62880;SDS011;48969;49.934;8.596;2023-08-21T08:36:59;10.35;;;8.85;;
62880;SDS011;48969;49.934;8.596;2023-08-21T08:39:24;10.30;;;9.20;;
62880;SDS011;48969;49.934;8.596;2023-08-21T08:41:57;10.68;;;9.68;;
62880;SDS011;48969;49.934;8.596;2023-08-21T08:44:24;9.88;;;8.77;;
62880;SDS011;48969;49.934;8.596;2023-08-21T08:46:51;10.65;;;9.55;;
62880;SDS011;48969;49.934;8.596;2023-08-21T08:49:17;10.48;;;9.00;;
62880;SDS011;48969;49.934;8.596;2023-08-21T08:51:42;9.98;;;8.98;;
62880;SDS011;48969;49.934;8.596;2023-08-21T08:54:08;10.25;;;8.80;;
62880;SDS011;48969;49.934;8.596;2023-08-21T08:56:35;10.55;;;9.40;;
62880;SDS011;48969;49.934;8.596;2023-08-21T08:59:00;10.32;;;9.30;;
62880;SDS011;48969;49.934;8.596;2023-08-21T09:01:27;9.63;;;8.68;;
62880;SDS011;48969;49.934;8.596;2023-08-21T09:03:52;10.48;;;9.48;;
62880;SDS011;48969;49.934;8.596;2023-08-21T09:06:17;9.18;;;8.27;;
62880;SDS011;48969;49.934;8.596;2023-08-21T09:09:04;9.63;;;8.70;;
62880;SDS011;48969;49.934;8.596;2023-08-21T09:11:29;8.32;;;7.45;;
62880;SDS011;48969;49.934;8.596;2023-08-21T09:13:54;10.10;;;8.93;;
62880;SDS011;48969;49.934;8.596;2023-08-21T09:16:21;9.75;;;8.85;;
62880;SDS011;48969;49.934;8.596;2023-08-21T09:18:50;9.82;;;8.82;;
62880;SDS011;48969;49.934;8.596;2023-08-21T09:21:22;9.43;;;7.97;;
62880;SDS011;48969;49.934;8.596;2023-08-21T09:23:59;12.50;;;9.27;;
62880;SDS011;48969;49.934;8.596;2023-08-21T09:26:26;9.02;;;8.23;;
62880;SDS011;48969;49.934;8.596;2023-08-21T09:28:54;10.15;;;8.38;;
62880;SDS011;48969;49.934;8.596;2023-08-21T09:31:23;9.27;;;8.00;;
62880;SDS011;48969;49.934;8.596;2023-08-21T09:33:56;8.38;;;7.53;;
62880;SDS011;48969;49.934;8.596;2023-08-21T09:36:22;8.05;;;7.25;;
62880;SDS011;48969;49.934;8.596;2023-08-21T09:38:48;8.38;;;7.57;;
62880;SDS011;48969;49.934;8.596;2023-08-21T09:41:13;8.85;;;7.95;;
62880;SDS011;48969;49.934;8.596;2023-08-21T09:43:41;9.30;;;8.27;;
62880;SDS011;48969;49.934;8.596;2023-08-21T09:46:08;9.90;;;8.02;;
62880;SDS011;48969;49.934;8.596;2023-08-21T09:48:33;9.63;;;7.68;;
62880;SDS011;48969;49.934;8.596;2023-08-21T09:51:00;9.07;;;7.47;;
62880;SDS011;48969;49.934;8.596;2023-08-21T09:53:29;8.38;;;7.40;;
62880;SDS011;48969;49.934;8.596;2023-08-21T09:55:55;8.77;;;7.15;;
62880;SDS011;48969;49.934;8.596;2023-08-21T09:58:21;9.27;;;7.90;;
62880;SDS011;48969;49.934;8.596;2023-08-21T10:00:47;9.75;;;7.78;;
62880;SDS011;48969;49.934;8.596;2023-08-21T10:03:14;8.60;;;7.80;;
62880;SDS011;48969;49.934;8.596;2023-08-21T10:05:44;8.13;;;7.40;;
62880;SDS011;48969;49.934;8.596;2023-08-21T10:08:09;9.48;;;7.65;;
62880;SDS011;48969;49.934;8.596;2023-08-21T10:10:37;7.43;;;6.65;;
62880;SDS011;48969;49.934;8.596;2023-08-21T10:13:03;8.18;;;7.38;;
62880;SDS011;48969;49.934;8.596;2023-08-21T10:15:30;8.18;;;7.20;;
62880;SDS011;48969;49.934;8.596;2023-08-21T10:17:57;7.78;;;6.60;;
62880;SDS011;48969;49.934;8.596;2023-08-21T10:20:24;7.35;;;6.65;;
62880;SDS011;48969;49.934;8.596;2023-08-21T10:22:54;6.93;;;6.22;;
62880;SDS011;48969;49.934;8.596;2023-08-21T10:25:25;7.80;;;6.95;;
62880;SDS011;48969;49.934;8.596;2023-08-21T10:28:00;7.63;;;6.82;;
62880;SDS011;48969;49.934;8.596;2023-08-21T10:30:28;7.97;;;5.88;;
62880;SDS011;48969;49.934;8.596;2023-08-21T10:32:54;6.80;;;6.15;;
62880;SDS011;48969;49.934;8.596;2023-08-21T10:35:21;6.55;;;5.65;;
62880;SDS011;48969;49.934;8.596;2023-08-21T10:43:43;6.00;;;5.40;;
62880;SDS011;48969;49.934;8.596;2023-08-21T10:46:10;5.57;;;4.93;;
62880;SDS011;48969;49.934;8.596;2023-08-21T10:48:36;5.15;;;4.40;;
62880;SDS011;48969;49.934;8.596;2023-08-21T10:51:03;6.18;;;4.93;;
62880;SDS011;48969;49.934;8.596;2023-08-21T10:53:29;5.10;;;4.10;;
62880;SDS011;48969;49.934;8.596;2023-08-21T10:55:55;5.18;;;4.10;;
62880;SDS011;48969;49.934;8.596;2023-08-21T10:58:21;4.90;;;4.40;;
62880;SDS011;48969;49.934;8.596;2023-08-21T11:00:55;5.13;;;3.63;;
62880;SDS011;48969;49.934;8.596;2023-08-21T11:03:22;3.55;;;3.25;;
62880;SDS011;48969;49.934;8.596;2023-08-21T11:05:59;3.97;;;3.45;;
62880;SDS011;48969;49.934;8.596;2023-08-21T11:08:35;3.88;;;3.25;;
62880;SDS011;48969;49.934;8.596;2023-08-21T11:11:01;7.25;;;4.38;;
62880;SDS011;48969;49.934;8.596;2023-08-21T11:13:29;5.80;;;4.18;;
62880;SDS011;48969;49.934;8.596;2023-08-21T11:18:29;6.35;;;4.18;;
62880;SDS011;48969;49.934;8.596;2023-08-21T11:21:02;4.47;;;4.07;;
62880;SDS011;48969;49.934;8.596;2023-08-21T11:23:33;4.22;;;3.78;;
62880;SDS011;48969;49.934;8.596;2023-08-21T11:25:59;5.45;;;4.30;;
62880;SDS011;48969;49.934;8.596;2023-08-21T11:28:25;4.72;;;4.18;;
62880;SDS011;48969;49.934;8.596;2023-08-21T11:30:50;5.00;;;4.38;;
62880;SDS011;48969;49.934;8.596;2023-08-21T11:33:15;5.82;;;4.13;;
62880;SDS011;48969;49.934;8.596;2023-08-21T11:35:41;6.15;;;4.53;;
62880;SDS011;48969;49.934;8.596;2023-08-21T11:38:14;5.07;;;4.18;;
62880;SDS011;48969;49.934;8.596;2023-08-21T11:43:21;4.30;;;3.33;;
62880;SDS011;48969;49.934;8.596;2023-08-21T11:45:47;2.78;;;2.55;;
62880;SDS011;48969;49.934;8.596;2023-08-21T11:48:12;5.70;;;4.13;;
62880;SDS011;48969;49.934;8.596;2023-08-21T11:50:38;10.43;;;4.20;;
62880;SDS011;48969;49.934;8.596;2023-08-21T11:53:04;3.72;;;3.30;;
62880;SDS011;48969;49.934;8.596;2023-08-21T11:55:30;3.85;;;3.00;;
62880;SDS011;48969;49.934;8.596;2023-08-21T11:57:56;3.00;;;2.28;;
62880;SDS011;48969;49.934;8.596;2023-08-21T12:00:28;2.70;;;2.50;;
62880;SDS011;48969;49.934;8.596;2023-08-21T12:02:55;3.70;;;2.58;;
62880;SDS011;48969;49.934;8.596;2023-08-21T12:05:21;2.65;;;2.22;;
62880;SDS011;48969;49.934;8.596;2023-08-21T12:07:47;2.72;;;2.50;;
62880;SDS011;48969;49.934;8.596;2023-08-21T12:10:12;2.58;;;2.28;;
62880;SDS011;48969;49.934;8.596;2023-08-21T12:12:38;3.50;;;2.80;;
62880;SDS011;48969;49.934;8.596;2023-08-21T12:15:03;3.45;;;3.13;;
62880;SDS011;48969;49.934;8.596;2023-08-21T12:17:29;3.63;;;2.70;;
62880;SDS011;48969;49.934;8.596;2023-08-21T12:19:54;2.97;;;2.60;;
62880;SDS011;48969;49.934;8.596;2023-08-21T12:22:19;4.03;;;2.60;;
62880;SDS011;48969;49.934;8.596;2023-08-21T12:24:44;4.05;;;2.92;;
62880;SDS011;48969;49.934;8.596;2023-08-21T12:27:10;3.53;;;3.00;;
62880;SDS011;48969;49.934;8.596;2023-08-21T12:29:35;4.07;;;3.20;;
62880;SDS011;48969;49.934;8.596;2023-08-21T12:32:01;4.32;;;3.00;;
62880;SDS011;48969;49.934;8.596;2023-08-21T12:34:27;3.22;;;2.90;;
62880;SDS011;48969;49.934;8.596;2023-08-21T12:36:53;3.22;;;2.53;;
62880;SDS011;48969;49.934;8.596;2023-08-21T12:39:18;3.35;;;2.90;;
62880;SDS011;48969;49.934;8.596;2023-08-21T12:41:44;3.33;;;2.92;;
62880;SDS011;48969;49.934;8.596;2023-08-21T12:44:09;3.58;;;3.00;;
62880;SDS011;48969;49.934;8.596;2023-08-21T12:46:35;3.47;;;2.80;;
62880;SDS011;48969;49.934;8.596;2023-08-21T12:49:01;3.47;;;2.80;;
62880;SDS011;48969;49.934;8.596;2023-08-21T12:51:27;2.83;;;2.58;;
62880;SDS011;48969;49.934;8.596;2023-08-21T12:53:53;2.50;;;1.88;;
62880;SDS011;48969;49.934;8.596;2023-08-21T12:56:19;2.78;;;1.88;;
62880;SDS011;48969;49.934;8.596;2023-08-21T12:58:45;2.13;;;1.65;;
62880;SDS011;48969;49.934;8.596;2023-08-21T13:01:11;2.67;;;2.10;;
62880;SDS011;48969;49.934;8.596;2023-08-21T13:03:37;2.75;;;1.98;;
62880;SDS011;48969;49.934;8.596;2023-08-21T13:06:02;2.10;;;1.90;;
62880;SDS011;48969;49.934;8.596;2023-08-21T13:08:28;3.40;;;1.80;;
62880;SDS011;48969;49.934;8.596;2023-08-21T13:10:53;2.28;;;1.98;;
62880;SDS011;48969;49.934;8.596;2023-08-21T13:13:18;2.33;;;1.90;;
62880;SDS011;48969;49.934;8.596;2023-08-21T13:15:44;5.20;;;2.38;;
62880;SDS011;48969;49.934;8.596;2023-08-21T13:18:12;3.08;;;1.88;;
62880;SDS011;48969;49.934;8.596;2023-08-21T13:20:39;2.53;;;1.67;;
62880;SDS011;48969;49.934;8.596;2023-08-21T13:23:05;1.65;;;1.40;;
62880;SDS011;48969;49.934;8.596;2023-08-21T13:25:30;2.03;;;1.45;;
62880;SDS011;48969;49.934;8.596;2023-08-21T13:27:55;1.70;;;0.95;;
62880;SDS011;48969;49.934;8.596;2023-08-21T13:30:21;1.65;;;1.13;;
62880;SDS011;48969;49.934;8.596;2023-08-21T13:32:47;1.98;;;1.50;;
62880;SDS011;48969;49.934;8.596;2023-08-21T13:35:13;1.67;;;1.50;;
62880;SDS011;48969;49.934;8.596;2023-08-21T13:37:39;1.55;;;1.40;;
62880;SDS011;48969;49.934;8.596;2023-08-21T13:40:04;2.25;;;1.23;;
62880;SDS011;48969;49.934;8.596;2023-08-21T13:42:38;1.23;;;1.10;;
62880;SDS011;48969;49.934;8.596;2023-08-21T13:45:07;1.20;;;1.10;;
62880;SDS011;48969;49.934;8.596;2023-08-21T13:47:34;1.73;;;1.10;;
62880;SDS011;48969;49.934;8.596;2023-08-21T13:49:59;2.00;;;1.30;;
62880;SDS011;48969;49.934;8.596;2023-08-21T13:52:25;1.52;;;1.10;;
62880;SDS011;48969;49.934;8.596;2023-08-21T13:54:50;2.23;;;1.23;;
62880;SDS011;48969;49.934;8.596;2023-08-21T13:57:15;1.17;;;1.02;;
62880;SDS011;48969;49.934;8.596;2023-08-21T13:59:40;1.30;;;1.20;;
62880;SDS011;48969;49.934;8.596;2023-08-21T14:02:06;1.65;;;1.27;;
62880;SDS011;48969;49.934;8.596;2023-08-21T14:04:32;1.63;;;1.40;;
62880;SDS011;48969;49.934;8.596;2023-08-21T14:06:57;2.35;;;1.63;;
62880;SDS011;48969;49.934;8.596;2023-08-21T14:09:23;2.47;;;1.65;;
62880;SDS011;48969;49.934;8.596;2023-08-21T14:11:48;2.65;;;1.83;;
62880;SDS011;48969;49.934;8.596;2023-08-21T14:14:13;3.90;;;1.60;;
62880;SDS011;48969;49.934;8.596;2023-08-21T14:16:38;2.20;;;1.60;;
62880;SDS011;48969;49.934;8.596;2023-08-21T14:19:04;2.85;;;1.73;;
62880;SDS011;48969;49.934;8.596;2023-08-21T14:21:29;2.63;;;1.80;;
62880;SDS011;48969;49.934;8.596;2023-08-21T14:23:54;1.60;;;1.50;;
62880;SDS011;48969;49.934;8.596;2023-08-21T14:26:20;1.80;;;1.70;;
62880;SDS011;48969;49.934;8.596;2023-08-21T14:28:45;6.65;;;2.15;;
62880;SDS011;48969;49.934;8.596;2023-08-21T14:31:15;1.77;;;1.55;;
62880;SDS011;48969;49.934;8.596;2023-08-21T14:33:40;2.22;;;1.83;;
62880;SDS011;48969;49.934;8.596;2023-08-21T14:36:05;3.00;;;2.00;;
62880;SDS011;48969;49.934;8.596;2023-08-21T14:38:31;1.98;;;1.80;;
62880;SDS011;48969;49.934;8.596;2023-08-21T14:40:56;3.38;;;1.73;;
62880;SDS011;48969;49.934;8.596;2023-08-21T14:43:22;1.73;;;1.50;;
62880;SDS011;48969;49.934;8.596;2023-08-21T14:45:47;3.30;;;2.17;;
62880;SDS011;48969;49.934;8.596;2023-08-21T14:48:13;3.33;;;1.80;;